This is the latest recevied weather packets stored in our database for station/object OE3PDB-3. If no packets are shown the sender has not sent any weather packets the latest 10 day(s).
| Time | Temp. | Humidity | Pressure | Rain* | Wind** | Luminosity | Snow |
|---|---|---|---|---|---|---|---|
| 1777585850 | 5.56° C | 44% | 1027.1 hPa | 0 mm | - | - | - |
| 1777584650 | 6.11° C | 43% | 1027.1 hPa | 0 mm | - | - | - |
| 1777584050 | 6.11° C | 44% | 1027.1 hPa | 0 mm | - | - | - |
| 1777583450 | 6.11° C | 44% | 1027.1 hPa | 0 mm | - | - | - |
| 1777582850 | 6.11° C | 43% | 1027.1 hPa | 0 mm | - | - | - |
| 1777581050 | 6.67° C | 42% | 1027.1 hPa | 0 mm | - | - | - |
| 1777580450 | 7.22° C | 41% | 1027.2 hPa | 0 mm | - | - | - |
| 1777579850 | 6.67° C | 41% | 1027.1 hPa | 0 mm | - | - | - |
| 1777579250 | 7.22° C | 41% | 1027 hPa | 0 mm | - | - | - |
| 1777578650 | 7.22° C | 41% | 1027.1 hPa | 0 mm | - | - | - |
| 1777576850 | 7.78° C | 39% | 1027 hPa | 0 mm | - | - | - |
| 1777576250 | 7.78° C | 38% | 1027 hPa | 0 mm | - | - | - |
| 1777575650 | 8.33° C | 37% | 1026.9 hPa | 0 mm | - | - | - |
| 1777573850 | 8.89° C | 36% | 1026.5 hPa | 0 mm | - | - | - |
| 1777573250 | 9.44° C | 35% | 1026.4 hPa | 0 mm | - | - | - |
| 1777572650 | 10° C | 34% | 1026.3 hPa | 0 mm | - | - | - |
| 1777570250 | 12.78° C | 30% | 1026.3 hPa | 0 mm | - | - | - |
| 1777569050 | 13.33° C | 28% | 1026.3 hPa | 0 mm | - | - | - |
| 1777561851 | 18.33° C | 24% | 1026.6 hPa | 0 mm | - | - | - |
| 1777561251 | 18.33° C | 24% | 1026.5 hPa | 0 mm | - | - | - |
| 1777560651 | 17.78° C | 24% | 1026.7 hPa | 0 mm | - | - | - |
| 1777559451 | 18.33° C | 24% | 1026.8 hPa | 0 mm | - | - | - |
| 1777558851 | 17.78° C | 25% | 1026.8 hPa | 0 mm | - | - | - |
| 1777558251 | 17.78° C | 24% | 1026.9 hPa | 0 mm | - | - | - |
| 1777557651 | 18.33° C | 26% | 1027.1 hPa | 0 mm | - | - | - |
* Rain latest hour (hover to see other rain measurements)
** Current wind speed in m/s (hover to see current wind gust speed)